Create Tblcommutelog Verified Points Advance Search
| # | Trip ID | Id Commuter | Trip Date | Trip Num | Current Lat | Current Lng | Delta Distance | Current Time | Activity | Activity Confidence | Current Speed | |
|---|---|---|---|---|---|---|---|---|---|---|---|---|
| 69081 | 260205_785447_16655759_1716 | 785447 | (not set) | (not set) | 38.916874783602 | -76.941616594048 | 4.0062 | 2026-02-05 17:26:00 | in_vehicle | 100 | 17.13054440441 | |
| 69082 | 260205_775339_16652873_1721 | 775339 | (not set) | (not set) | 38.935670320824 | -77.266467269445 | 2.232 | 2026-02-05 17:26:00 | in_vehicle | 100 | 12.606507103454 | |
| 69083 | 260205_775339_16652873_1721 | 775339 | (not set) | (not set) | 38.935670320824 | -77.266467269445 | 2.232 | 2026-02-05 17:26:00 | in_vehicle | 100 | 12.606507103454 | |
| 69084 | 260205_790224_16659215_1659 | 790224 | (not set) | (not set) | 38.833515420633 | -77.102243507749 | 7.1863 | 2026-02-05 17:26:08 | in_vehicle | 100 | 15.226157161122 | |
| 69085 | 260205_775339_16652873_1721 | 775339 | (not set) | (not set) | 38.938173283752 | -77.269223178908 | 2.4597 | 2026-02-05 17:26:13 | in_vehicle | 100 | 11.806306829866 | |
| 69086 | 260205_775339_16652873_1721 | 775339 | (not set) | (not set) | 38.938173283752 | -77.269223178908 | 2.4597 | 2026-02-05 17:26:13 | in_vehicle | 100 | 11.806306829866 | |
| 69087 | 260205_781185_16648856_1659 | 781185 | (not set) | (not set) | 38.832199519647 | -77.1068413038 | 7.4304 | 2026-02-05 17:26:21 | in_vehicle | 100 | 14.618183768899 | |
| 69088 | 260205_790224_16659215_1659 | 790224 | (not set) | (not set) | 38.832214659746 | -77.106839621652 | 7.4501 | 2026-02-05 17:26:21 | in_vehicle | 100 | 14.533246309691 | |
| 69089 | 260205_785112_16653192_1717 | 785112 | (not set) | (not set) | 38.902142419483 | -77.042981612412 | 0.2615 | 2026-02-05 17:26:25 | still | 33 | -0.44703925898772 | |
| 69090 | 260205_783292_16651014_1602 | 783292 | (not set) | (not set) | 38.898039564279 | -77.198554671581 | 21.1351 | 2026-02-05 17:26:27 | in_vehicle | 100 | 11.538083274473 | |
| 69091 | 260205_788586_16657246_1701 | 788586 | (not set) | (not set) | 39.242414166667 | -76.665267 | 2.9427 | 2026-02-05 17:26:33 | in_vehicle | 100 | 6.0484411741039 | |
| 69092 | 260205_775339_16652873_1721 | 775339 | (not set) | (not set) | 38.941525540503 | -77.274784229607 | 2.8428 | 2026-02-05 17:26:39 | in_vehicle | 100 | 10.389192378875 | |
| 69093 | 260205_782405_16650093_1701 | 782405 | (not set) | (not set) | 39.272691770127 | -76.634203810249 | 1.7826 | 2026-02-05 17:25:38 | in_vehicle | 100 | 5.0560140191512 | |
| 69094 | 260205_766965_16633905_1659 | 766965 | (not set) | (not set) | 38.828531026938 | -77.116714765849 | 8.0352 | 2026-02-05 17:26:49 | in_vehicle | 100 | 14.953463213139 | |
| 69095 | 260205_784811_16652840_1559 | 784811 | (not set) | (not set) | 38.856039620041 | -77.139616794956 | 8.7724 | 2026-02-05 17:26:53 | unknown | 100 | 0 | |
| 69096 | 260205_775339_16652873_1721 | 775339 | (not set) | (not set) | 38.941979568394 | -77.278231706978 | 3.0311 | 2026-02-05 17:26:52 | in_vehicle | 100 | 10.348958845566 | |
| 69097 | 260205_781273_16648948_1655 | 781273 | (not set) | (not set) | 38.953866954704 | -77.082526078399 | 3.8572 | 2026-02-05 17:26:59 | in_vehicle | 100 | -0.44703925898772 | |
| 69098 | 260205_791404_16660549_1713 | 791404 | (not set) | (not set) | 38.88670173195 | -77.095336684359 | 1.4295 | 2026-02-05 17:27:02 | on_foot | 100 | 0.67949967366134 | |
| 69099 | 260205_787797_16656316_1643 | 787797 | (not set) | (not set) | 39.059632570884 | -77.117926476796 | 14.1857 | 2026-02-05 17:27:05 | unknown | 100 | -0.44703925898772 | |
| 69100 | 260205_790224_16659215_1659 | 790224 | (not set) | (not set) | 38.824814541409 | -77.12315565834 | 8.4734 | 2026-02-05 17:27:11 | in_vehicle | 100 | 14.054914302574 |